createdAt,value
2018-01-08T00:00:16.902Z,18.98
2018-01-08T00:02:44.290Z,18.99
2018-01-08T00:05:11.678Z,18.98
2018-01-08T00:07:39.161Z,19.02
2018-01-08T00:10:06.555Z,19.00
2018-01-08T00:12:34.018Z,19.01
2018-01-08T00:15:01.381Z,18.98
2018-01-08T00:17:28.738Z,18.93
2018-01-08T00:19:56.152Z,18.97
2018-01-08T00:22:23.642Z,18.97
2018-01-08T00:24:51.118Z,18.92
2018-01-08T00:27:18.540Z,18.98
2018-01-08T00:29:45.966Z,18.98
2018-01-08T00:32:13.410Z,18.90
2018-01-08T00:34:40.848Z,19.00
2018-01-08T00:37:08.199Z,18.93
2018-01-08T00:39:35.575Z,18.92
2018-01-08T00:42:02.954Z,18.88
2018-01-08T00:44:30.354Z,18.91
2018-01-08T00:46:57.738Z,18.90
2018-01-08T00:49:25.131Z,18.91
2018-01-08T00:51:52.515Z,18.89
2018-01-08T00:54:19.898Z,18.94
2018-01-08T00:56:47.294Z,18.97
2018-01-08T00:59:14.698Z,18.94
2018-01-08T01:01:42.198Z,18.94
2018-01-08T01:04:09.582Z,18.93
2018-01-08T01:06:36.995Z,18.89
2018-01-08T01:09:04.355Z,18.91
2018-01-08T01:11:31.805Z,18.90
2018-01-08T01:13:59.145Z,18.89
2018-01-08T01:16:26.540Z,18.81
2018-01-08T01:18:53.903Z,18.91
2018-01-08T01:21:21.304Z,18.92
2018-01-08T01:23:48.717Z,18.93
2018-01-08T01:26:16.117Z,18.81
2018-01-08T01:28:43.486Z,18.80
2018-01-08T01:31:10.906Z,18.83
2018-01-08T01:33:38.395Z,18.89
2018-01-08T01:36:05.800Z,18.88
2018-01-08T01:38:33.177Z,18.93
2018-01-08T01:41:00.573Z,18.83
2018-01-08T01:43:28.024Z,18.81
2018-01-08T01:45:55.377Z,18.85
2018-01-08T01:48:22.773Z,18.80
2018-01-08T01:50:50.142Z,18.88
2018-01-08T01:53:17.498Z,18.89
2018-01-08T01:55:44.924Z,18.80
2018-01-08T01:58:12.305Z,18.83
2018-01-08T02:00:39.773Z,18.91
2018-01-08T02:03:07.144Z,19.07
2018-01-08T02:05:34.561Z,18.83
2018-01-08T02:08:01.918Z,18.73
2018-01-08T02:10:29.292Z,18.73
2018-01-08T02:12:56.686Z,18.75
2018-01-08T02:15:24.106Z,18.70
2018-01-08T02:17:51.494Z,18.73
2018-01-08T02:20:18.874Z,18.72
2018-01-08T02:22:46.288Z,18.74
2018-01-08T02:25:13.658Z,18.70
2018-01-08T02:27:41.058Z,18.75
2018-01-08T02:30:08.402Z,18.78
2018-01-08T02:32:35.795Z,18.75
2018-01-08T02:35:03.238Z,18.82
2018-01-08T02:37:30.626Z,18.81
2018-01-08T02:39:57.983Z,18.90
2018-01-08T02:42:25.458Z,18.89
2018-01-08T02:44:52.826Z,18.93
2018-01-08T02:47:20.224Z,18.89
2018-01-08T02:49:47.614Z,18.96
2018-01-08T02:52:15.047Z,18.99
2018-01-08T02:54:42.449Z,19.04
2018-01-08T02:57:09.832Z,18.82
2018-01-08T02:59:37.246Z,18.99
2018-01-08T03:02:04.649Z,19.04
2018-01-08T03:04:32.029Z,19.12
2018-01-08T03:06:59.430Z,19.12
2018-01-08T03:09:26.832Z,19.06
2018-01-08T03:11:54.227Z,19.13
2018-01-08T03:14:21.651Z,19.12
2018-01-08T03:16:49.057Z,19.13
2018-01-08T03:19:16.432Z,19.06
2018-01-08T03:21:43.778Z,19.09
2018-01-08T03:24:11.260Z,19.14
2018-01-08T03:26:38.651Z,19.14
2018-01-08T03:29:06.053Z,19.19
2018-01-08T03:31:33.446Z,19.18
2018-01-08T03:34:00.858Z,19.28
2018-01-08T03:36:28.267Z,19.25
2018-01-08T03:38:55.642Z,19.21
2018-01-08T03:41:23.002Z,19.23
2018-01-08T03:43:50.395Z,19.15
2018-01-08T03:46:17.755Z,19.26
2018-01-08T03:48:45.150Z,19.24
2018-01-08T03:51:12.520Z,19.29
2018-01-08T03:53:39.881Z,19.26
2018-01-08T03:56:07.294Z,19.15
2018-01-08T03:58:34.652Z,19.25
2018-01-08T04:01:02.082Z,19.27
2018-01-08T04:03:29.506Z,19.28
2018-01-08T04:05:56.934Z,19.25
2018-01-08T04:08:24.378Z,19.37
2018-01-08T04:10:51.779Z,19.31
2018-01-08T04:13:19.157Z,19.44
2018-01-08T04:15:46.577Z,19.55
2018-01-08T04:18:13.939Z,19.53
2018-01-08T04:20:41.370Z,19.69
2018-01-08T04:23:08.736Z,19.73
2018-01-08T04:25:36.206Z,19.82
2018-01-08T04:28:03.632Z,19.85
2018-01-08T04:30:31.082Z,19.84
2018-01-08T04:32:58.502Z,19.78
2018-01-08T04:35:25.914Z,19.91
2018-01-08T04:37:53.321Z,19.94
2018-01-08T04:40:20.712Z,20.03
2018-01-08T04:42:48.125Z,20.17
2018-01-08T04:45:15.541Z,19.82
2018-01-08T04:47:43.078Z,20.08
2018-01-08T04:50:10.558Z,20.12
2018-01-08T04:52:38.946Z,20.21
2018-01-08T04:55:06.354Z,20.21
2018-01-08T04:57:33.838Z,20.19
2018-01-08T05:00:01.250Z,20.22
2018-01-08T05:02:28.773Z,20.22
2018-01-08T05:04:56.134Z,20.24
2018-01-08T05:07:23.505Z,20.22
2018-01-08T05:09:50.980Z,20.29
2018-01-08T05:12:18.849Z,20.36
2018-01-08T05:14:46.313Z,20.43
2018-01-08T05:17:13.742Z,20.39
2018-01-08T05:19:41.186Z,20.47
2018-01-08T05:22:08.567Z,20.51
2018-01-08T05:24:36.031Z,20.51
2018-01-08T05:27:03.478Z,20.45
2018-01-08T05:29:33.233Z,20.53
2018-01-08T05:32:00.710Z,20.57
2018-01-08T05:34:28.098Z,20.59
2018-01-08T05:36:55.533Z,20.61
2018-01-08T05:39:22.909Z,20.63
2018-01-08T05:41:50.283Z,20.59
2018-01-08T05:44:17.690Z,20.67
2018-01-08T05:46:45.120Z,20.66
2018-01-08T05:49:12.642Z,20.69
2018-01-08T05:51:40.171Z,20.76
2018-01-08T05:54:07.547Z,20.68
2018-01-08T05:56:34.983Z,20.64
2018-01-08T05:59:02.356Z,20.82
2018-01-08T06:01:29.795Z,20.83
2018-01-08T06:03:57.518Z,20.75
2018-01-08T06:06:24.946Z,20.75
2018-01-08T06:08:52.398Z,20.78
2018-01-08T06:11:19.922Z,20.79
2018-01-08T06:13:47.415Z,20.78
2018-01-08T06:16:14.923Z,20.86
2018-01-08T06:18:42.666Z,20.94
2018-01-08T06:21:10.074Z,20.93
2018-01-08T06:23:37.531Z,20.92
2018-01-08T06:26:04.951Z,20.76
2018-01-08T06:28:32.355Z,20.79
2018-01-08T06:30:59.738Z,20.89
2018-01-08T06:33:27.170Z,20.77
2018-01-08T06:35:54.551Z,20.93
2018-01-08T06:38:22.042Z,20.88
2018-01-08T06:40:49.462Z,20.98
2018-01-08T06:43:16.878Z,21.15
2018-01-08T06:45:44.282Z,21.08
2018-01-08T06:48:11.783Z,20.96
2018-01-08T06:50:39.207Z,21.01
2018-01-08T06:53:06.624Z,21.08
2018-01-08T06:55:34.051Z,21.25
2018-01-08T06:58:01.533Z,21.30
2018-01-08T07:00:28.936Z,21.31
2018-01-08T07:02:56.364Z,21.21
2018-01-08T07:05:23.790Z,21.09
2018-01-08T07:10:29.700Z,21.34
2018-01-08T07:12:57.194Z,21.61
2018-01-08T07:15:24.632Z,21.26
2018-01-08T07:17:52.047Z,21.56
2018-01-08T07:20:19.462Z,21.41
2018-01-08T07:22:46.949Z,21.49
2018-01-08T07:25:14.355Z,21.53
2018-01-08T07:27:41.797Z,21.59
2018-01-08T07:30:09.293Z,21.71
2018-01-08T07:32:36.693Z,21.78
2018-01-08T07:35:04.134Z,21.77
2018-01-08T07:37:31.558Z,21.72
2018-01-08T07:39:58.996Z,21.78
2018-01-08T07:42:26.463Z,21.79
2018-01-08T07:44:53.980Z,21.78
2018-01-08T07:47:21.575Z,21.80
2018-01-08T07:49:49.600Z,21.80
2018-01-08T07:52:16.970Z,21.87
2018-01-08T07:54:44.570Z,21.86
2018-01-08T07:57:12.892Z,22.09
2018-01-08T07:59:41.178Z,22.15
2018-01-08T08:02:08.679Z,22.00
2018-01-08T08:04:36.184Z,22.08
2018-01-08T08:07:03.731Z,22.08
2018-01-08T08:09:31.232Z,22.09
2018-01-08T08:11:58.681Z,22.24
2018-01-08T08:14:26.217Z,22.37
2018-01-08T08:16:53.706Z,22.21
2018-01-08T08:19:21.390Z,22.36
2018-01-08T08:21:48.825Z,22.29
2018-01-08T08:24:16.346Z,22.49
2018-01-08T08:26:43.863Z,22.36
2018-01-08T08:29:11.339Z,22.40
2018-01-08T08:31:38.737Z,22.67
2018-01-08T08:34:06.293Z,22.65
2018-01-08T08:36:33.745Z,22.62
2018-01-08T08:39:01.266Z,22.68
2018-01-08T08:41:28.923Z,22.48
2018-01-08T08:43:56.307Z,22.52
2018-01-08T08:46:24.333Z,22.75
2018-01-08T08:48:51.789Z,22.79
2018-01-08T08:51:19.350Z,22.64
2018-01-08T08:53:46.850Z,22.94
2018-01-08T08:56:14.250Z,22.97
2018-01-08T08:58:41.829Z,22.95
2018-01-08T09:01:09.341Z,22.95
2018-01-08T09:03:36.750Z,22.96
2018-01-08T09:06:05.245Z,22.99
2018-01-08T09:08:32.779Z,22.99
2018-01-08T09:11:00.208Z,23.09
2018-01-08T09:13:27.639Z,23.18
2018-01-08T09:15:55.457Z,23.05
2018-01-08T09:18:22.826Z,23.17
2018-01-08T09:20:50.249Z,23.24
2018-01-08T09:23:17.691Z,23.06
2018-01-08T09:25:45.159Z,23.08
2018-01-08T09:28:12.607Z,23.12
2018-01-08T09:30:40.016Z,23.21
2018-01-08T09:33:07.559Z,23.27
2018-01-08T09:35:35.877Z,23.03
2018-01-08T09:38:03.516Z,23.14
2018-01-08T09:40:30.974Z,23.20
2018-01-08T09:42:58.744Z,23.19
2018-01-08T09:45:28.194Z,23.29
2018-01-08T09:47:59.592Z,23.17
2018-01-08T09:50:27.907Z,23.32
2018-01-08T09:52:55.438Z,23.42
2018-01-08T09:55:23.389Z,23.22
2018-01-08T09:57:50.796Z,23.16
2018-01-08T10:00:18.271Z,23.01
2018-01-08T10:02:45.676Z,23.17
2018-01-08T10:05:13.207Z,23.05
2018-01-08T10:07:40.722Z,23.04
2018-01-08T10:10:08.207Z,23.02
2018-01-08T10:12:35.637Z,23.19
2018-01-08T10:15:03.261Z,23.10
2018-01-08T10:17:30.722Z,23.04
2018-01-08T10:19:58.136Z,23.06
2018-01-08T10:22:26.932Z,22.95
2018-01-08T10:24:54.505Z,23.00
2018-01-08T10:27:21.978Z,23.11
2018-01-08T10:29:49.399Z,22.99
2018-01-08T10:32:16.890Z,22.94
2018-01-08T10:34:44.302Z,22.97
2018-01-08T10:37:11.746Z,22.90
2018-01-08T10:39:39.152Z,22.96
2018-01-08T10:42:06.635Z,22.93
2018-01-08T10:44:34.210Z,23.09
2018-01-08T10:47:01.623Z,23.05
2018-01-08T10:49:29.135Z,22.96
2018-01-08T10:51:56.551Z,23.05
2018-01-08T10:54:23.998Z,23.06
2018-01-08T10:56:53.438Z,22.95
2018-01-08T10:59:20.870Z,23.12
2018-01-08T11:01:48.371Z,23.16
2018-01-08T11:04:15.806Z,23.10
2018-01-08T11:06:43.242Z,23.10
2018-01-08T11:09:11.238Z,23.18
2018-01-08T11:11:38.726Z,23.22
2018-01-08T11:14:06.296Z,23.11
2018-01-08T11:16:33.638Z,23.30
2018-01-08T11:19:01.127Z,23.31
2018-01-08T11:21:28.678Z,23.26
2018-01-08T11:23:56.150Z,23.35
2018-01-08T11:26:24.991Z,23.41
2018-01-08T11:28:52.466Z,23.37
2018-01-08T11:31:19.874Z,23.38
2018-01-08T11:33:47.369Z,23.41
2018-01-08T11:36:14.788Z,23.48
2018-01-08T11:38:42.739Z,23.44
2018-01-08T11:41:10.161Z,23.64
2018-01-08T11:43:37.574Z,23.57
2018-01-08T11:46:06.653Z,23.52
2018-01-08T11:48:34.345Z,23.47
2018-01-08T11:51:03.742Z,23.54
2018-01-08T11:53:31.331Z,23.48
2018-01-08T11:55:58.849Z,23.49
2018-01-08T11:58:26.282Z,23.59
2018-01-08T12:00:53.816Z,23.52
2018-01-08T12:03:21.441Z,23.34
2018-01-08T12:05:48.994Z,23.48
2018-01-08T12:08:16.610Z,23.55
2018-01-08T12:10:44.062Z,23.57
2018-01-08T12:13:11.502Z,23.68
2018-01-08T12:15:39.029Z,23.58
2018-01-08T12:18:06.995Z,23.59
2018-01-08T12:20:35.011Z,23.73
2018-01-08T12:23:02.787Z,23.64
2018-01-08T12:25:30.304Z,23.79
2018-01-08T12:27:57.919Z,23.67
2018-01-08T12:30:27.762Z,23.80
2018-01-08T12:32:55.416Z,23.81
2018-01-08T12:35:23.027Z,23.77
2018-01-08T12:37:50.543Z,23.83
2018-01-08T12:40:18.406Z,23.96
2018-01-08T12:42:45.860Z,23.93
2018-01-08T12:45:13.787Z,23.81
2018-01-08T12:50:31.598Z,23.85
2018-01-08T12:52:59.340Z,23.93
2018-01-08T12:55:27.432Z,23.85
2018-01-08T12:57:57.914Z,23.90
2018-01-08T13:00:27.534Z,23.92
2018-01-08T13:02:55.804Z,23.98
2018-01-08T13:05:23.968Z,24.05
2018-01-08T13:07:53.450Z,23.97
2018-01-08T13:10:21.602Z,23.83
2018-01-08T13:12:49.474Z,23.97
2018-01-08T13:15:17.129Z,24.01
2018-01-08T13:17:46.177Z,24.01
2018-01-08T13:20:13.786Z,23.98
2018-01-08T13:22:41.579Z,24.02
2018-01-08T13:25:09.146Z,24.03
2018-01-08T13:27:36.904Z,24.09
2018-01-08T13:30:04.591Z,24.06
2018-01-08T13:32:32.067Z,24.22
2018-01-08T13:35:02.564Z,24.13
2018-01-08T13:37:30.108Z,24.04
2018-01-08T13:39:57.739Z,24.09
2018-01-08T13:42:25.432Z,24.09
2018-01-08T13:44:53.295Z,23.95
2018-01-08T13:47:20.878Z,24.00
2018-01-08T13:49:58.866Z,24.03
2018-01-08T13:52:33.052Z,23.99
2018-01-08T13:55:00.623Z,23.87
2018-01-08T13:57:28.366Z,23.97
2018-01-08T13:59:56.265Z,24.07
2018-01-08T14:02:23.706Z,24.02
2018-01-08T14:07:44.597Z,24.02
2018-01-08T14:10:12.133Z,24.05
2018-01-08T14:12:39.806Z,24.23
2018-01-08T14:15:07.716Z,24.12
2018-01-08T14:17:35.354Z,24.16
2018-01-08T14:20:03.156Z,24.04
2018-01-08T14:22:31.011Z,24.08
2018-01-08T14:24:59.008Z,23.99
2018-01-08T14:27:26.676Z,23.94
2018-01-08T14:29:54.268Z,23.87
2018-01-08T14:32:21.984Z,23.99
2018-01-08T14:34:49.502Z,23.76
2018-01-08T14:37:16.990Z,23.76
2018-01-08T14:39:44.921Z,23.90
2018-01-08T14:42:12.403Z,23.94
2018-01-08T14:44:40.104Z,23.81
2018-01-08T14:47:07.669Z,23.94
2018-01-08T14:49:35.200Z,23.82
2018-01-08T14:52:03.114Z,23.87
2018-01-08T14:54:31.591Z,23.92
2018-01-08T14:57:04.764Z,23.97
2018-01-08T14:59:32.367Z,23.86
2018-01-08T15:02:01.092Z,23.91
2018-01-08T15:04:29.990Z,23.76
2018-01-08T15:06:58.452Z,23.67
2018-01-08T15:09:26.043Z,23.65
2018-01-08T15:11:53.724Z,23.79
2018-01-08T15:14:22.374Z,23.69
2018-01-08T15:16:52.333Z,23.72
2018-01-08T15:19:19.785Z,23.79
2018-01-08T15:21:47.432Z,23.80
2018-01-08T15:24:19.114Z,23.90
2018-01-08T15:26:48.003Z,23.80
2018-01-08T15:29:17.197Z,23.71
2018-01-08T15:31:45.063Z,23.63
2018-01-08T15:34:12.625Z,23.61
2018-01-08T15:36:41.175Z,23.69
2018-01-08T15:39:08.839Z,23.63
2018-01-08T15:41:39.471Z,23.69
2018-01-08T15:44:06.935Z,23.76
2018-01-08T15:46:34.396Z,23.50
2018-01-08T15:49:03.364Z,23.62
2018-01-08T15:51:30.831Z,23.60
2018-01-08T15:53:58.612Z,23.51
2018-01-08T15:56:26.211Z,23.56
2018-01-08T15:58:53.937Z,23.60
2018-01-08T16:01:21.492Z,23.64
2018-01-08T16:03:49.078Z,23.65
2018-01-08T16:06:16.607Z,23.57
2018-01-08T16:08:44.070Z,23.46
2018-01-08T16:11:11.915Z,23.50
2018-01-08T16:13:39.353Z,23.36
2018-01-08T16:16:06.895Z,23.58
2018-01-08T16:18:34.322Z,23.45
2018-01-08T16:21:01.869Z,23.45
2018-01-08T16:23:29.318Z,23.44
2018-01-08T16:25:56.718Z,23.47
2018-01-08T16:28:24.431Z,23.44
2018-01-08T16:30:51.874Z,23.40
2018-01-08T16:33:19.346Z,23.44
2018-01-08T16:35:46.747Z,23.31
2018-01-08T16:38:14.209Z,23.34
2018-01-08T16:40:41.584Z,23.21
2018-01-08T16:43:08.968Z,23.32
2018-01-08T16:45:36.423Z,23.19
2018-01-08T16:48:03.810Z,23.26
2018-01-08T16:50:31.248Z,23.23
2018-01-08T16:52:58.617Z,23.19
2018-01-08T16:55:26.062Z,23.14
2018-01-08T16:57:53.453Z,23.12
2018-01-08T17:00:20.922Z,23.10
2018-01-08T17:02:48.317Z,23.07
2018-01-08T17:05:15.779Z,22.95
2018-01-08T17:07:43.362Z,22.99
2018-01-08T17:10:10.812Z,23.00
2018-01-08T17:12:38.296Z,22.77
2018-01-08T17:15:05.670Z,22.86
2018-01-08T17:17:33.210Z,22.86
2018-01-08T17:20:00.614Z,22.87
2018-01-08T17:22:28.027Z,22.82
2018-01-08T17:24:55.436Z,22.75
2018-01-08T17:27:22.923Z,22.76
2018-01-08T17:29:50.400Z,22.71
2018-01-08T17:32:17.834Z,22.74
2018-01-08T17:34:45.284Z,22.73
2018-01-08T17:37:12.663Z,22.68
2018-01-08T17:39:40.102Z,22.64
2018-01-08T17:42:07.467Z,22.55
2018-01-08T17:44:34.886Z,22.64
2018-01-08T17:47:02.378Z,22.55
2018-01-08T17:49:29.839Z,22.56
2018-01-08T17:51:57.263Z,22.52
2018-01-08T17:54:24.670Z,22.52
2018-01-08T17:56:52.091Z,22.36
2018-01-08T17:59:19.544Z,22.47
2018-01-08T18:01:46.910Z,22.44
2018-01-08T18:04:14.319Z,22.44
2018-01-08T18:06:41.812Z,22.32
2018-01-08T18:09:09.260Z,22.31
2018-01-08T18:11:36.642Z,22.29
2018-01-08T18:14:04.042Z,22.27
2018-01-08T18:16:31.491Z,22.34
2018-01-08T18:18:58.942Z,22.37
2018-01-08T18:21:26.400Z,22.32
2018-01-08T18:23:53.742Z,22.31
2018-01-08T18:26:21.114Z,22.33
2018-01-08T18:28:50.515Z,22.20
2018-01-08T18:31:17.921Z,22.28
2018-01-08T18:33:45.479Z,22.26
2018-01-08T18:36:12.953Z,22.28
2018-01-08T18:38:40.320Z,22.25
2018-01-08T18:41:07.744Z,22.26
2018-01-08T18:43:35.144Z,22.23
2018-01-08T18:46:02.726Z,22.22
2018-01-08T18:48:30.127Z,22.21
2018-01-08T18:50:57.625Z,22.18
2018-01-08T18:53:25.024Z,22.13
2018-01-08T18:55:52.449Z,22.18
2018-01-08T18:58:19.810Z,22.16
2018-01-08T19:00:47.228Z,22.16
2018-01-08T19:03:14.583Z,22.15
2018-01-08T19:05:42.022Z,22.11
2018-01-08T19:08:09.396Z,22.12
2018-01-08T19:10:36.778Z,22.10
2018-01-08T19:13:04.186Z,22.05
2018-01-08T19:15:31.615Z,22.09
2018-01-08T19:17:58.974Z,22.06
2018-01-08T19:20:26.333Z,22.05
2018-01-08T19:22:53.738Z,22.02
2018-01-08T19:25:21.123Z,22.01
2018-01-08T19:27:48.531Z,22.02
2018-01-08T19:30:15.922Z,22.03
2018-01-08T19:32:43.333Z,22.02
2018-01-08T19:35:12.348Z,22.01
2018-01-08T19:37:39.888Z,21.98
2018-01-08T19:40:07.320Z,22.00
2018-01-08T19:42:34.686Z,21.95
2018-01-08T19:45:02.090Z,21.93
2018-01-08T19:47:29.812Z,21.92
2018-01-08T19:49:57.229Z,21.83
2018-01-08T19:52:24.641Z,21.80
2018-01-08T19:54:52.038Z,21.76
2018-01-08T19:57:19.476Z,21.72
2018-01-08T19:59:46.856Z,21.62
2018-01-08T20:02:14.307Z,21.57
2018-01-08T20:04:41.703Z,21.56
2018-01-08T20:07:09.110Z,21.55
2018-01-08T20:09:36.570Z,21.53
2018-01-08T20:12:04.152Z,21.34
2018-01-08T20:14:31.594Z,21.45
2018-01-08T20:16:59.052Z,21.36
2018-01-08T20:19:26.420Z,21.32
2018-01-08T20:21:53.837Z,21.32
2018-01-08T20:24:21.298Z,21.30
2018-01-08T20:26:48.804Z,21.26
2018-01-08T20:29:16.196Z,21.26
2018-01-08T20:31:43.595Z,21.19
2018-01-08T20:34:10.969Z,21.22
2018-01-08T20:36:38.426Z,21.19
2018-01-08T20:39:05.856Z,21.17
2018-01-08T20:41:33.270Z,21.14
2018-01-08T20:44:00.702Z,21.13
2018-01-08T20:46:28.166Z,21.11
2018-01-08T20:48:55.623Z,21.12
2018-01-08T20:51:23.018Z,21.04
2018-01-08T20:53:50.389Z,21.07
2018-01-08T20:56:17.807Z,20.98
2018-01-08T20:58:45.238Z,20.97
2018-01-08T21:01:12.641Z,21.00
2018-01-08T21:03:40.017Z,20.88
2018-01-08T21:06:07.486Z,20.94
2018-01-08T21:08:34.862Z,20.96
2018-01-08T21:11:02.344Z,20.94
2018-01-08T21:13:29.743Z,20.75
2018-01-08T21:15:57.166Z,20.87
2018-01-08T21:18:24.590Z,20.86
2018-01-08T21:20:52.014Z,20.82
2018-01-08T21:23:19.453Z,20.85
2018-01-08T21:25:46.955Z,20.87
2018-01-08T21:28:14.407Z,20.75
2018-01-08T21:30:41.817Z,20.82
2018-01-08T21:33:09.235Z,20.79
2018-01-08T21:35:36.618Z,20.72
2018-01-08T21:38:04.022Z,20.69
2018-01-08T21:40:31.435Z,20.71
2018-01-08T21:42:58.873Z,20.71
2018-01-08T21:45:26.237Z,20.68
2018-01-08T21:47:53.658Z,20.71
2018-01-08T21:50:21.092Z,20.64
2018-01-08T21:52:48.511Z,20.63
2018-01-08T21:55:15.915Z,20.64
2018-01-08T21:57:43.309Z,20.65
2018-01-08T22:00:10.792Z,20.60
2018-01-08T22:02:38.201Z,20.58
2018-01-08T22:05:05.616Z,20.60
2018-01-08T22:07:33.018Z,20.59
2018-01-08T22:10:00.457Z,20.57
2018-01-08T22:12:27.947Z,20.54
2018-01-08T22:14:55.311Z,20.51
2018-01-08T22:17:22.762Z,20.56
2018-01-08T22:19:50.146Z,20.49
2018-01-08T22:22:17.577Z,20.51
2018-01-08T22:24:44.974Z,20.52
2018-01-08T22:27:12.536Z,20.47
2018-01-08T22:29:39.986Z,20.48
2018-01-08T22:32:07.349Z,20.44
2018-01-08T22:34:34.777Z,20.48
2018-01-08T22:37:02.222Z,20.46
2018-01-08T22:39:29.747Z,20.37
2018-01-08T22:41:57.115Z,20.40
2018-01-08T22:44:24.671Z,20.42
2018-01-08T22:46:52.098Z,20.34
2018-01-08T22:49:19.467Z,20.30
2018-01-08T22:51:46.882Z,20.39
2018-01-08T22:54:14.284Z,20.32
2018-01-08T22:56:41.726Z,20.38
2018-01-08T22:59:09.098Z,20.32
2018-01-08T23:01:36.683Z,20.30
2018-01-08T23:04:04.141Z,20.26
2018-01-08T23:06:31.581Z,20.30
2018-01-08T23:08:59.191Z,20.32
2018-01-08T23:11:26.615Z,20.32
2018-01-08T23:13:54.036Z,20.30
2018-01-08T23:16:21.465Z,20.28
2018-01-08T23:18:48.892Z,20.30
2018-01-08T23:21:16.347Z,20.24
2018-01-08T23:23:43.784Z,20.17
2018-01-08T23:26:11.198Z,20.26
2018-01-08T23:28:38.628Z,20.25
2018-01-08T23:31:06.075Z,20.21
2018-01-08T23:33:33.480Z,20.22
2018-01-08T23:36:00.923Z,20.19
2018-01-08T23:38:28.314Z,20.17
2018-01-08T23:40:55.758Z,20.15
2018-01-08T23:43:23.217Z,20.22
2018-01-08T23:45:50.617Z,20.20
2018-01-08T23:48:18.238Z,20.15
2018-01-08T23:50:45.764Z,20.16
2018-01-08T23:53:13.201Z,20.12
2018-01-08T23:58:21.709Z,20.15
